Time;durP1;ratioP1;P1;durP2;ratioP2;P2;SDS_P1;SDS_P2;PMS_P1;PMS_P2;Temp;Humidity;BMP_temperature;BMP_pressure;BME280_temperature;BME280_humidity;BME280_pressure;Samples;Min_cycle;Max_cycle;Signal;HPM_P1;HPM_P2
2021/06/17 00:01:50;;;;;;;6.37;4.73;;;18.30;92.50;;;;;;4986612;28;20242;-59
2021/06/17 00:04:16;;;;;;;8.70;5.03;;;18.20;92.50;;;;;;5008008;28;20180;-59
2021/06/17 00:06:43;;;;;;;6.33;4.50;;;18.20;92.60;;;;;;5010605;28;20176;-59
2021/06/17 00:09:09;;;;;;;5.93;4.53;;;18.10;92.80;;;;;;5010328;28;20176;-59
2021/06/17 00:11:35;;;;;;;6.50;4.93;;;18.00;92.80;;;;;;5007682;28;20458;-59
2021/06/17 00:14:01;;;;;;;5.40;4.63;;;18.00;93.00;;;;;;5004147;28;20547;-59
2021/06/17 00:16:26;;;;;;;7.90;4.80;;;18.00;93.30;;;;;;5004223;28;20435;-59
2021/06/17 00:18:52;;;;;;;6.93;4.97;;;18.00;93.40;;;;;;5010620;28;20504;-59
2021/06/17 00:21:18;;;;;;;12.43;5.30;;;17.90;93.40;;;;;;5007231;28;20638;-60
2021/06/17 00:23:43;;;;;;;6.53;4.40;;;17.90;93.60;;;;;;5004765;28;20473;-59
2021/06/17 00:26:09;;;;;;;6.37;5.20;;;17.90;93.70;;;;;;5007800;28;20185;-59
2021/06/17 00:28:35;;;;;;;7.37;5.20;;;17.80;93.90;;;;;;5004786;28;20181;-59
2021/06/17 00:31:00;;;;;;;8.77;5.30;;;17.80;94.00;;;;;;5007002;28;20223;-59
2021/06/17 00:33:27;;;;;;;12.30;4.90;;;17.80;94.10;;;;;;4983456;28;20271;-59
2021/06/17 00:35:52;;;;;;;7.00;5.07;;;17.70;94.20;;;;;;5010804;28;20172;-60
2021/06/17 00:38:18;;;;;;;6.87;5.87;;;17.70;94.20;;;;;;5009367;28;21097;-58
2021/06/17 00:40:44;;;;;;;9.03;5.20;;;17.60;94.50;;;;;;5007939;28;20209;-59
2021/06/17 00:43:10;;;;;;;6.27;5.13;;;17.60;94.70;;;;;;5007676;28;20215;-60
2021/06/17 00:45:42;;;;;;;6.70;5.30;;;17.50;94.70;;;;;;5009887;28;20975;-59
2021/06/17 00:48:08;;;;;;;5.70;4.73;;;17.50;94.90;;;;;;5004047;28;20424;-59
2021/06/17 00:50:53;;;;;;;6.37;4.93;;;17.50;95.10;;;;;;5001739;28;20547;-60
2021/06/17 00:53:30;;;;;;;8.13;5.10;;;17.40;95.20;;;;;;5005265;28;20438;-60
2021/06/17 00:55:57;;;;;;;6.80;5.10;;;17.40;95.20;;;;;;5004706;28;20435;-59
2021/06/17 00:58:23;;;;;;;7.73;5.07;;;17.40;95.20;;;;;;5009135;28;20860;-60
2021/06/17 01:00:49;;;;;;;9.13;5.77;;;17.30;95.40;;;;;;5007075;28;20552;-60
2021/06/17 01:03:15;;;;;;;10.30;6.07;;;17.30;95.50;;;;;;5005919;28;20467;-59
2021/06/17 01:05:41;;;;;;;7.10;5.80;;;17.30;95.50;;;;;;4988154;28;20660;-60
2021/06/17 01:08:34;;;;;;;15.07;4.90;;;17.20;95.60;;;;;;5009255;28;20422;-60
2021/06/17 01:11:24;;;;;;;8.50;5.03;;;17.20;95.40;;;;;;5008051;28;20204;-59
2021/06/17 01:13:53;;;;;;;8.80;4.93;;;17.20;95.20;;;;;;5002621;28;21031;-60
2021/06/17 01:16:38;;;;;;;5.80;4.47;;;17.10;95.30;;;;;;5003859;28;20817;-59
2021/06/17 01:19:30;;;;;;;5.60;4.80;;;17.10;95.30;;;;;;5003854;28;20430;-61
2021/06/17 01:22:05;;;;;;;9.70;5.00;;;17.00;95.70;;;;;;5007009;28;20851;-60
2021/06/17 01:24:58;;;;;;;5.63;5.00;;;17.00;95.70;;;;;;5004970;28;20470;-59
2021/06/17 01:27:54;;;;;;;5.27;4.77;;;17.00;95.70;;;;;;5006650;28;20436;-60
2021/06/17 01:30:21;;;;;;;7.97;5.07;;;16.90;95.60;;;;;;5006152;28;20592;-59
2021/06/17 01:32:50;;;;;;;5.43;4.87;;;16.90;96.20;;;;;;5007704;28;20551;-61
2021/06/17 01:35:19;;;;;;;7.03;5.10;;;16.90;96.40;;;;;;4992294;28;20434;-60
2021/06/17 01:37:46;;;;;;;8.70;5.10;;;16.80;96.50;;;;;;5007496;28;21075;-60
2021/06/17 01:40:13;;;;;;;6.40;5.57;;;16.80;96.60;;;;;;5005512;28;20459;-61
2021/06/17 01:42:42;;;;;;;7.03;5.50;;;16.80;96.50;;;;;;5007842;28;20435;-60
2021/06/17 01:45:08;;;;;;;5.60;4.73;;;16.80;96.60;;;;;;5004661;28;20427;-60
2021/06/17 01:47:36;;;;;;;6.37;4.90;;;16.70;96.70;;;;;;5007602;28;20499;-60
2021/06/17 01:50:03;;;;;;;6.53;5.30;;;16.70;96.70;;;;;;5005529;28;20908;-59
2021/06/17 01:52:30;;;;;;;6.20;5.60;;;16.70;97.30;;;;;;5008077;28;20802;-59
2021/06/17 01:54:59;;;;;;;7.30;5.80;;;16.60;97.20;;;;;;5008207;28;20472;-59
2021/06/17 01:57:25;;;;;;;6.37;5.73;;;16.60;97.30;;;;;;5017226;28;20423;-60
2021/06/17 01:59:53;;;;;;;5.33;4.83;;;16.60;97.30;;;;;;5012324;28;20463;-59
2021/06/17 02:02:19;;;;;;;7.87;5.50;;;16.60;97.20;;;;;;5012026;28;20459;-59
2021/06/17 02:04:51;;;;;;;6.80;5.57;;;16.50;97.30;;;;;;5005055;28;20438;-59
2021/06/17 02:07:19;;;;;;;16.43;5.57;;;16.50;97.30;;;;;;5001685;28;20940;-60
2021/06/17 02:09:47;;;;;;;9.60;6.00;;;16.40;97.50;;;;;;5008209;28;20443;-60
2021/06/17 02:12:13;;;;;;;10.93;4.67;;;16.40;97.50;;;;;;5003462;28;20427;-59
2021/06/17 02:14:40;;;;;;;5.43;4.50;;;16.40;98.00;;;;;;5007398;28;20561;-59
2021/06/17 02:17:07;;;;;;;6.03;5.10;;;16.30;97.70;;;;;;5006011;28;20423;-60
2021/06/17 02:19:34;;;;;;;9.67;5.23;;;16.30;97.70;;;;;;5006754;28;20565;-60
2021/06/17 02:22:01;;;;;;;9.10;5.10;;;16.30;97.90;;;;;;5002321;28;20490;-60
2021/06/17 02:24:29;;;;;;;6.73;5.00;;;16.30;97.90;;;;;;5002688;28;21010;-59
2021/06/17 02:26:58;;;;;;;7.43;4.90;;;16.20;98.00;;;;;;4998334;28;20440;-60
2021/06/17 02:29:24;;;;;;;7.10;5.47;;;16.20;98.30;;;;;;5003039;28;20727;-59
2021/06/17 02:31:53;;;;;;;6.30;5.47;;;16.20;98.20;;;;;;5006043;28;20427;-59
2021/06/17 02:34:19;;;;;;;7.30;5.07;;;16.10;98.30;;;;;;5003416;28;20478;-60
2021/06/17 02:36:47;;;;;;;11.30;5.30;;;16.10;98.50;;;;;;5008066;28;20442;-60
2021/06/17 02:39:20;;;;;;;7.97;6.10;;;16.00;98.50;;;;;;5007014;28;20427;-59
2021/06/17 02:41:50;;;;;;;6.43;5.30;;;16.00;98.80;;;;;;5004990;28;20978;-60
2021/06/17 02:44:18;;;;;;;7.50;5.03;;;16.00;98.90;;;;;;5003542;28;20979;-60
2021/06/17 02:46:44;;;;;;;8.40;5.60;;;15.90;98.80;;;;;;5007846;28;20411;-60
2021/06/17 02:49:09;;;;;;;9.70;5.00;;;15.90;98.80;;;;;;5008602;28;20446;-60
2021/06/17 02:51:35;;;;;;;6.10;5.03;;;15.90;98.60;;;;;;5002389;28;20670;-61
2021/06/17 02:54:01;;;;;;;6.23;4.50;;;15.90;98.60;;;;;;4999406;28;20176;-60
2021/06/17 02:56:59;;;;;;;9.90;5.53;;;15.90;98.50;;;;;;4988529;28;20493;-60
2021/06/17 02:59:34;;;;;;;7.63;4.70;;;15.90;98.50;;;;;;4995657;28;20448;-61
2021/06/17 03:02:14;;;;;;;7.90;5.40;;;15.80;98.40;;;;;;5004289;28;20955;-60
2021/06/17 03:05:00;;;;;;;5.50;5.00;;;15.80;98.60;;;;;;4990790;28;20435;-60
2021/06/17 03:07:33;;;;;;;10.13;5.10;;;15.80;98.60;;;;;;5006780;28;20439;-59
2021/06/17 03:10:05;;;;;;;6.20;5.30;;;15.70;98.60;;;;;;5004290;28;20474;-59
2021/06/17 03:12:32;;;;;;;6.77;4.87;;;15.70;98.70;;;;;;5005965;28;20427;-59
2021/06/17 03:15:01;;;;;;;7.20;5.30;;;15.70;99.00;;;;;;5007029;28;20494;-59
2021/06/17 03:17:28;;;;;;;7.80;5.27;;;15.70;99.10;;;;;;5007008;28;20829;-59
2021/06/17 03:19:56;;;;;;;6.03;5.30;;;15.60;99.10;;;;;;5006247;28;20558;-60
2021/06/17 03:22:26;;;;;;;7.87;5.80;;;15.60;99.10;;;;;;5004303;28;20434;-61
2021/06/17 03:24:57;;;;;;;6.00;5.40;;;15.60;99.20;;;;;;5001097;28;20980;-59
2021/06/17 03:27:25;;;;;;;6.03;5.03;;;15.60;99.40;;;;;;5009957;28;20791;-59
2021/06/17 03:29:52;;;;;;;9.10;6.00;;;15.60;99.50;;;;;;5006624;28;20519;-60
2021/06/17 03:32:20;;;;;;;6.07;5.47;;;15.50;99.30;;;;;;5009405;28;20509;-59
2021/06/17 03:34:47;;;;;;;7.60;5.37;;;15.50;99.50;;;;;;5006997;28;20439;-59
2021/06/17 03:37:17;;;;;;;7.47;5.57;;;15.50;99.50;;;;;;5007093;28;20597;-60
2021/06/17 03:39:44;;;;;;;8.80;6.60;;;15.50;99.40;;;;;;5011198;28;20466;-60
2021/06/17 03:42:11;;;;;;;7.53;5.70;;;15.40;99.50;;;;;;5007341;28;20796;-59
2021/06/17 03:44:38;;;;;;;8.00;5.27;;;15.40;99.60;;;;;;5010811;28;20483;-59
2021/06/17 03:47:05;;;;;;;7.83;5.63;;;15.40;99.40;;;;;;5005835;28;20989;-59
2021/06/17 03:49:31;;;;;;;8.83;6.07;;;15.40;99.40;;;;;;5005046;28;20492;-60
2021/06/17 03:51:58;;;;;;;7.87;5.63;;;15.40;99.50;;;;;;5008534;28;20518;-60
2021/06/17 03:54:27;;;;;;;12.30;5.40;;;15.40;99.60;;;;;;5008541;28;20427;-59
2021/06/17 03:56:55;;;;;;;6.30;4.93;;;15.40;99.90;;;;;;5009168;28;20523;-60
2021/06/17 03:59:26;;;;;;;8.60;5.67;;;15.40;99.90;;;;;;5006430;28;20442;-60
2021/06/17 04:01:53;;;;;;;13.20;5.60;;;15.40;99.70;;;;;;5003953;28;20803;-60
2021/06/17 04:04:19;;;;;;;6.93;5.50;;;15.40;99.90;;;;;;5003945;28;20453;-59
2021/06/17 04:06:51;;;;;;;8.03;6.03;;;15.40;99.90;;;;;;5005643;28;20439;-60
2021/06/17 04:09:27;;;;;;;9.13;5.10;;;15.40;99.80;;;;;;5007109;28;20423;-59
2021/06/17 04:12:26;;;;;;;6.80;5.37;;;15.50;99.60;;;;;;5007569;28;20434;-60
2021/06/17 04:14:54;;;;;;;7.17;5.73;;;15.50;99.70;;;;;;4988755;28;20461;-61
2021/06/17 04:17:23;;;;;;;7.73;5.47;;;15.60;99.50;;;;;;4997973;28;20466;-59
2021/06/17 04:22:23;;;;;;;5.90;5.30;;;15.70;99.30;;;;;;5040358;28;20985;-56
2021/06/17 04:24:58;;;;;;;7.00;6.30;;;15.70;99.30;;;;;;5034487;28;20846;-55
2021/06/17 04:27:26;;;;;;;7.47;5.20;;;15.70;99.10;;;;;;5040166;28;20914;-55
2021/06/17 04:29:54;;;;;;;6.23;5.60;;;15.80;98.90;;;;;;5037547;28;20740;-56
2021/06/17 04:32:21;;;;;;;7.90;6.43;;;15.80;98.70;;;;;;5020167;28;20488;-57
2021/06/17 04:34:48;;;;;;;9.40;5.83;;;15.90;98.60;;;;;;5040812;28;21252;-56
2021/06/17 04:37:17;;;;;;;6.50;5.90;;;15.90;98.60;;;;;;5040369;28;20518;-55
2021/06/17 04:39:43;;;;;;;7.60;6.10;;;16.00;98.60;;;;;;5034861;28;20457;-54
2021/06/17 04:42:11;;;;;;;11.37;6.27;;;16.00;98.50;;;;;;5041754;28;20448;-55
2021/06/17 04:44:44;;;;;;;13.97;6.87;;;16.00;98.80;;;;;;5030521;28;20529;-56
2021/06/17 04:47:11;;;;;;;8.43;6.50;;;16.10;98.50;;;;;;5033885;28;20841;-54
2021/06/17 04:49:38;;;;;;;8.20;6.23;;;16.10;98.40;;;;;;5016718;28;20434;-52
2021/06/17 04:52:07;;;;;;;9.53;5.67;;;16.10;98.30;;;;;;5033715;28;20484;-53
2021/06/17 04:54:34;;;;;;;6.33;5.43;;;16.20;97.90;;;;;;5011918;28;21012;-53
2021/06/17 04:57:00;;;;;;;10.43;5.43;;;16.20;98.00;;;;;;5034436;28;21291;-53
2021/06/17 04:59:26;;;;;;;11.43;6.10;;;16.30;98.40;;;;;;5033217;28;20950;-52
2021/06/17 05:01:52;;;;;;;6.10;5.20;;;16.30;97.80;;;;;;5029420;28;20209;-54
2021/06/17 05:04:18;;;;;;;9.30;5.50;;;16.40;97.10;;;;;;5015466;28;20500;-54
2021/06/17 05:06:56;;;;;;;6.33;5.73;;;16.50;97.00;;;;;;5035423;28;20827;-53
2021/06/17 05:12:06;;;;;;;7.27;5.53;;;16.50;96.50;;;;;;5030143;28;21048;-52
2021/06/17 05:14:34;;;;;;;6.47;4.67;;;16.70;96.20;;;;;;5036802;28;20906;-52
2021/06/17 05:17:00;;;;;;;5.50;4.90;;;16.70;96.10;;;;;;5030808;28;20531;-52
2021/06/17 05:19:25;;;;;;;6.37;4.80;;;16.80;95.80;;;;;;5038893;28;20430;-52
2021/06/17 05:21:51;;;;;;;13.10;5.13;;;16.90;95.60;;;;;;5019836;28;20321;-52
2021/06/17 05:24:17;;;;;;;8.13;4.80;;;17.00;94.90;;;;;;5042175;28;20206;-52
2021/06/17 05:26:42;;;;;;;8.00;5.10;;;17.10;94.50;;;;;;5038440;28;20175;-51
2021/06/17 05:29:08;;;;;;;6.90;5.10;;;17.20;94.20;;;;;;5036892;28;20191;-50
2021/06/17 05:31:34;;;;;;;8.50;5.60;;;17.20;93.60;;;;;;5032452;28;20207;-53
2021/06/17 05:33:59;;;;;;;5.63;4.60;;;17.30;93.10;;;;;;5051475;28;20185;-52
2021/06/17 05:36:25;;;;;;;8.13;4.90;;;17.30;92.20;;;;;;5060748;28;20190;-53
2021/06/17 05:38:51;;;;;;;10.50;5.17;;;17.40;92.10;;;;;;5046838;28;20221;-53
2021/06/17 05:41:17;;;;;;;8.10;5.50;;;17.40;92.50;;;;;;5041237;28;20210;-49
2021/06/17 05:43:43;;;;;;;7.93;5.10;;;17.50;93.30;;;;;;5048286;28;20421;-50
2021/06/17 05:46:08;;;;;;;7.70;5.33;;;17.60;93.10;;;;;;5051649;28;20232;-49
2021/06/17 05:48:35;;;;;;;7.40;5.40;;;17.70;92.40;;;;;;5038166;28;20232;-49
2021/06/17 05:51:04;;;;;;;11.03;5.50;;;17.80;92.40;;;;;;5033164;28;21070;-49
2021/06/17 05:53:30;;;;;;;7.30;5.30;;;17.80;92.10;;;;;;5036331;28;20502;-49
2021/06/17 05:55:56;;;;;;;5.50;4.60;;;17.90;91.80;;;;;;5038144;28;20651;-52
2021/06/17 05:58:21;;;;;;;6.10;4.67;;;18.00;91.60;;;;;;5037408;28;20205;-52
2021/06/17 06:00:47;;;;;;;12.33;5.23;;;18.10;91.70;;;;;;5043367;28;20492;-53
2021/06/17 06:03:13;;;;;;;10.90;5.63;;;18.20;91.30;;;;;;5039330;28;20353;-53
2021/06/17 06:05:38;;;;;;;8.00;5.50;;;18.30;91.20;;;;;;5043239;28;20282;-53
2021/06/17 06:08:11;;;;;;;9.83;5.60;;;18.40;90.30;;;;;;5035407;28;20221;-53
2021/06/17 06:10:38;;;;;;;7.93;5.13;;;18.40;89.50;;;;;;5033162;28;20196;-55
2021/06/17 06:13:04;;;;;;;5.80;4.90;;;18.50;89.80;;;;;;5039199;28;20430;-54
2021/06/17 06:15:33;;;;;;;10.70;4.63;;;18.50;89.60;;;;;;5038853;28;20441;-53
2021/06/17 06:18:10;;;;;;;8.00;5.00;;;18.50;89.60;;;;;;5043302;28;20175;-54
2021/06/17 06:20:37;;;;;;;7.33;4.80;;;18.70;89.60;;;;;;5036517;28;20504;-54
2021/06/17 06:23:03;;;;;;;12.50;6.10;;;18.80;89.50;;;;;;5046042;28;20512;-53
2021/06/17 06:25:29;;;;;;;10.13;6.97;;;19.00;89.90;;;;;;5055599;28;20765;-52
2021/06/17 06:27:55;;;;;;;18.20;9.83;;;19.10;90.10;;;;;;5023294;28;21181;-53
2021/06/17 06:30:21;;;;;;;22.97;9.50;;;19.30;89.10;;;;;;5036195;28;20207;-54
2021/06/17 06:32:47;;;;;;;17.27;8.93;;;19.50;88.60;;;;;;5041546;28;20448;-54
2021/06/17 06:35:13;;;;;;;15.90;9.30;;;19.60;87.90;;;;;;5039424;28;20441;-54
2021/06/17 06:37:39;;;;;;;14.57;8.90;;;19.80;88.00;;;;;;5046037;28;20266;-54
2021/06/17 06:40:06;;;;;;;13.90;7.10;;;19.90;86.80;;;;;;5032899;28;20907;-54
2021/06/17 06:42:32;;;;;;;19.63;6.50;;;20.00;86.60;;;;;;5040048;28;20206;-54
2021/06/17 06:44:58;;;;;;;9.97;6.00;;;20.10;86.70;;;;;;5042285;28;20513;-54
2021/06/17 06:47:23;;;;;;;14.40;6.00;;;20.20;86.60;;;;;;5039701;28;20928;-54
2021/06/17 06:49:51;;;;;;;8.47;5.03;;;20.30;86.10;;;;;;5031613;28;20635;-54
2021/06/17 06:52:17;;;;;;;9.50;6.10;;;20.50;85.30;;;;;;5044695;28;20187;-54
2021/06/17 06:54:42;;;;;;;10.10;5.93;;;20.60;84.30;;;;;;5041272;28;20433;-54
2021/06/17 06:57:08;;;;;;;8.30;4.93;;;20.70;82.50;;;;;;5042079;28;20187;-54
2021/06/17 06:59:34;;;;;;;11.73;5.70;;;20.90;81.00;;;;;;5034782;28;20191;-54
2021/06/17 07:01:59;;;;;;;10.27;5.90;;;21.00;79.70;;;;;;5035814;28;20224;-55
2021/06/17 07:04:25;;;;;;;7.50;5.10;;;21.20;77.00;;;;;;5021020;28;20207;-54
2021/06/17 07:06:53;;;;;;;9.97;5.50;;;21.30;74.90;;;;;;5047159;28;20201;-54
2021/06/17 07:09:19;;;;;;;8.90;6.10;;;21.40;73.90;;;;;;5036611;28;20655;-53
2021/06/17 07:11:47;;;;;;;18.87;6.47;;;21.60;73.10;;;;;;5026448;28;20468;-54
2021/06/17 07:14:13;;;;;;;12.80;6.93;;;21.80;74.00;;;;;;5040128;28;20233;-53
2021/06/17 07:16:38;;;;;;;18.00;7.80;;;21.90;74.60;;;;;;5024784;28;20449;-54
2021/06/17 07:19:06;;;;;;;20.63;7.50;;;22.10;73.20;;;;;;5063239;28;20253;-54
2021/06/17 07:21:33;;;;;;;12.90;6.73;;;22.30;71.20;;;;;;5039495;28;20202;-55
2021/06/17 07:23:58;;;;;;;26.70;6.27;;;22.40;69.10;;;;;;5039379;28;20433;-54
2021/06/17 07:26:27;;;;;;;12.13;6.67;;;22.60;69.00;;;;;;5041115;28;20682;-55
2021/06/17 07:28:55;;;;;;;10.77;5.40;;;22.70;68.90;;;;;;5037986;28;20716;-54
2021/06/17 07:31:21;;;;;;;9.40;5.47;;;22.90;67.00;;;;;;5029118;28;20817;-54
2021/06/17 07:33:49;;;;;;;7.20;5.73;;;23.00;65.20;;;;;;5044333;28;20567;-54
2021/06/17 07:36:15;;;;;;;8.67;5.80;;;23.20;64.80;;;;;;5041558;28;20458;-54
2021/06/17 07:38:41;;;;;;;13.13;5.87;;;23.30;64.50;;;;;;5040713;28;20484;-54
2021/06/17 07:41:07;;;;;;;14.67;6.00;;;23.40;61.30;;;;;;5029606;28;20214;-54
2021/06/17 07:43:33;;;;;;;12.87;6.10;;;23.50;59.10;;;;;;5040482;28;20461;-54
2021/06/17 07:45:59;;;;;;;18.67;9.00;;;23.50;58.90;;;;;;5052820;28;20202;-55
2021/06/17 07:48:26;;;;;;;17.47;11.27;;;23.60;58.90;;;;;;5044353;28;20182;-54
2021/06/17 07:50:52;;;;;;;22.03;6.37;;;23.70;58.90;;;;;;5030173;28;20488;-54
2021/06/17 07:53:18;;;;;;;12.77;5.87;;;23.80;58.60;;;;;;5026835;28;20481;-54
2021/06/17 07:55:44;;;;;;;10.77;5.57;;;23.90;58.50;;;;;;5040158;28;20175;-54
2021/06/17 07:58:11;;;;;;;15.30;6.03;;;24.00;59.30;;;;;;5031205;28;20184;-53
2021/06/17 08:00:36;;;;;;;11.37;6.00;;;24.10;61.00;;;;;;5034482;28;20944;-54
2021/06/17 08:03:02;;;;;;;10.93;6.30;;;24.30;61.80;;;;;;5040075;28;20440;-54
2021/06/17 08:05:28;;;;;;;7.90;6.07;;;24.40;61.00;;;;;;5041274;28;20624;-54
2021/06/17 08:07:53;;;;;;;8.70;5.60;;;24.50;60.20;;;;;;5020121;28;20762;-52
2021/06/17 08:10:19;;;;;;;7.60;5.27;;;24.60;58.80;;;;;;5027841;28;20226;-55
2021/06/17 08:12:46;;;;;;;7.53;5.70;;;24.70;58.90;;;;;;5035496;28;20266;-54
2021/06/17 08:15:11;;;;;;;6.93;5.30;;;24.70;58.60;;;;;;5038634;28;20179;-54
2021/06/17 08:17:37;;;;;;;8.43;5.03;;;24.80;58.00;;;;;;5034206;28;20429;-54
2021/06/17 08:20:05;;;;;;;10.80;4.80;;;24.90;58.00;;;;;;5040054;28;20421;-54
2021/06/17 08:22:31;;;;;;;10.10;5.53;;;25.10;58.60;;;;;;5045842;28;20266;-54
2021/06/17 08:24:57;;;;;;;13.23;4.43;;;25.30;58.70;;;;;;5024135;28;20425;-54
2021/06/17 08:27:23;;;;;;;8.07;4.90;;;25.50;59.20;;;;;;5035218;28;20668;-55
2021/06/17 08:29:48;;;;;;;5.53;4.03;;;25.60;57.80;;;;;;5040590;28;20293;-54
2021/06/17 08:32:14;;;;;;;7.47;3.97;;;25.70;56.90;;;;;;5042538;28;20955;-55
2021/06/17 08:34:43;;;;;;;5.37;3.90;;;25.90;54.70;;;;;;5037395;28;20186;-55
2021/06/17 08:37:08;;;;;;;7.67;4.23;;;26.00;52.70;;;;;;5033134;28;20461;-55
2021/06/17 08:39:35;;;;;;;6.20;4.30;;;26.10;51.20;;;;;;5028093;28;20487;-55
2021/06/17 08:42:02;;;;;;;6.03;3.40;;;26.20;50.30;;;;;;5043337;28;20576;-55
2021/06/17 08:44:29;;;;;;;5.03;3.13;;;26.20;50.20;;;;;;5036750;28;20935;-55
2021/06/17 08:46:55;;;;;;;3.97;3.37;;;26.30;49.70;;;;;;5029727;28;20452;-55
2021/06/17 08:49:23;;;;;;;4.40;3.43;;;26.40;46.30;;;;;;5042226;28;20514;-55
2021/06/17 08:51:50;;;;;;;3.10;2.80;;;26.50;45.80;;;;;;5036423;28;20514;-55
2021/06/17 08:54:20;;;;;;;3.43;2.50;;;26.60;45.60;;;;;;5043401;28;20433;-55
2021/06/17 08:56:47;;;;;;;7.90;3.50;;;26.60;44.20;;;;;;5040771;28;20492;-54
2021/06/17 08:59:14;;;;;;;10.80;3.63;;;26.70;44.80;;;;;;5035297;28;20429;-56
2021/06/17 09:01:40;;;;;;;8.00;3.60;;;26.70;46.00;;;;;;5042200;28;20468;-57
2021/06/17 09:04:27;;;;;;;4.67;2.60;;;26.80;44.30;;;;;;5026813;28;20618;-55
2021/06/17 09:07:09;;;;;;;5.37;3.10;;;26.80;44.50;;;;;;5039098;28;20163;-55
2021/06/17 09:09:44;;;;;;;3.53;3.23;;;26.90;42.00;;;;;;5042362;28;20457;-56
2021/06/17 09:12:13;;;;;;;5.97;3.10;;;27.00;41.60;;;;;;5037022;28;20462;-55
2021/06/17 09:14:48;;;;;;;3.27;2.97;;;27.10;43.20;;;;;;5037794;28;20427;-55
2021/06/17 09:17:14;;;;;;;6.13;2.73;;;27.20;42.90;;;;;;5021282;28;20506;-56
2021/06/17 09:19:42;;;;;;;5.10;3.00;;;27.40;42.20;;;;;;5018822;28;20434;-56
2021/06/17 09:22:11;;;;;;;5.43;2.80;;;27.40;42.20;;;;;;5036400;28;20666;-56
2021/06/17 09:24:39;;;;;;;8.00;3.33;;;27.50;41.10;;;;;;5040445;28;20516;-56
2021/06/17 09:27:32;;;;;;;5.07;3.50;;;27.60;41.90;;;;;;5040490;28;20417;-55
2021/06/17 09:30:10;;;;;;;4.03;3.63;;;27.60;40.90;;;;;;5038328;28;20496;-55
2021/06/17 09:32:40;;;;;;;4.30;3.10;;;27.70;40.30;;;;;;5019969;28;20440;-57
2021/06/17 09:35:26;;;;;;;6.37;3.20;;;27.80;40.50;;;;;;5040607;28;20559;-55
2021/06/17 09:38:00;;;;;;;3.40;3.10;;;27.80;38.40;;;;;;5035981;28;20567;-55
2021/06/17 09:40:31;;;;;;;8.47;3.57;;;27.80;38.90;;;;;;5037936;28;20472;-55
2021/06/17 09:43:22;;;;;;;3.50;3.00;;;27.90;37.60;;;;;;5042073;28;20489;-55
2021/06/17 09:45:57;;;;;;;4.00;3.63;;;28.00;37.60;;;;;;5041370;28;20847;-55
2021/06/17 09:48:44;;;;;;;3.47;3.17;;;28.00;38.20;;;;;;5041565;28;20420;-55
2021/06/17 09:51:30;;;;;;;7.70;3.70;;;28.10;38.40;;;;;;5041474;28;20896;-55
2021/06/17 09:54:10;;;;;;;5.00;3.03;;;28.20;39.90;;;;;;5043411;28;20441;-55
2021/06/17 09:56:37;;;;;;;5.97;3.93;;;28.30;38.60;;;;;;5028024;28;20508;-55
2021/06/17 09:59:04;;;;;;;9.93;3.73;;;28.30;40.30;;;;;;5061093;28;20417;-55
2021/06/17 10:01:34;;;;;;;4.90;3.40;;;28.40;42.20;;;;;;5034572;28;20571;-55
2021/06/17 10:04:11;;;;;;;5.93;3.53;;;28.60;41.90;;;;;;5037307;28;20285;-55
2021/06/17 10:06:41;;;;;;;4.80;3.80;;;28.80;41.80;;;;;;5044842;28;20174;-55
2021/06/17 10:09:13;;;;;;;5.33;3.70;;;28.90;41.30;;;;;;5026225;28;20602;-55
2021/06/17 10:11:40;;;;;;;3.60;3.30;;;29.00;39.60;;;;;;5042796;28;20212;-57
2021/06/17 10:14:07;;;;;;;5.47;3.20;;;29.10;40.40;;;;;;5043492;28;20600;-55
2021/06/17 10:16:34;;;;;;;6.40;3.60;;;29.20;40.80;;;;;;5040085;28;20213;-55
2021/06/17 10:19:01;;;;;;;17.93;14.17;;;29.40;41.10;;;;;;5042351;28;20178;-55
2021/06/17 10:21:31;;;;;;;4.30;3.90;;;29.60;40.70;;;;;;5047843;22;20231;-62
2021/06/17 10:23:58;;;;;;;11.53;4.50;;;29.70;40.10;;;;;;5014908;28;20214;-62
2021/06/17 10:26:26;;;;;;;5.47;3.90;;;29.70;40.90;;;;;;5018341;28;20187;-58
2021/06/17 10:28:54;;;;;;;5.83;4.50;;;29.80;42.00;;;;;;5017803;28;20229;-59
2021/06/17 10:31:43;;;;;;;5.07;4.27;;;29.80;40.30;;;;;;5003757;28;20218;-61
2021/06/17 10:34:29;;;;;;;5.20;4.20;;;29.90;40.40;;;;;;4981681;28;20641;-61
2021/06/17 10:37:06;;;;;;;11.80;4.10;;;30.00;40.30;;;;;;4999464;28;20174;-61
2021/06/17 10:39:45;;;;;;;5.43;3.72;;;30.10;40.30;;;;;;4997629;28;20207;-61
2021/06/17 10:42:15;;;;;;;7.05;4.55;;;30.10;39.70;;;;;;5008365;28;20678;-62
2021/06/17 10:44:55;;;;;;;5.50;4.10;;;30.20;41.40;;;;;;5006003;28;20184;-62
2021/06/17 10:47:49;;;;;;;5.20;4.40;;;30.40;41.50;;;;;;5002510;28;20168;-62
2021/06/17 10:50:33;;;;;;;4.22;3.78;;;30.60;41.80;;;;;;5003630;28;20786;-62
2021/06/17 10:53:17;;;;;;;4.22;3.83;;;30.80;41.00;;;;;;5005278;28;20295;-61
2021/06/17 10:56:01;;;;;;;11.23;4.07;;;31.00;39.60;;;;;;5007794;28;20176;-61
2021/06/17 10:58:45;;;;;;;4.35;3.92;;;31.10;39.80;;;;;;5007665;28;20653;-62
2021/06/17 11:01:24;;;;;;;7.13;4.15;;;31.20;40.10;;;;;;4986628;28;20216;-61
2021/06/17 11:04:06;;;;;;;5.55;3.95;;;31.30;40.40;;;;;;5008689;28;20187;-60
2021/06/17 11:06:55;;;;;;;8.90;4.07;;;31.40;39.40;;;;;;5009064;28;20185;-61
2021/06/17 11:09:39;;;;;;;6.43;4.55;;;31.50;40.70;;;;;;5002618;28;20257;-60
2021/06/17 11:12:17;;;;;;;4.15;3.42;;;31.60;39.20;;;;;;5002817;28;20680;-60
2021/06/17 11:14:47;;;;;;;6.05;3.97;;;31.80;38.50;;;;;;4998580;28;20214;-59
2021/06/17 11:17:31;;;;;;;4.15;3.83;;;31.90;38.90;;;;;;5001520;28;20190;-59
2021/06/17 11:20:04;;;;;;;8.43;5.35;;;31.90;38.80;;;;;;5006740;28;20212;-61
2021/06/17 11:22:40;;;;;;;8.75;4.82;;;32.10;39.40;;;;;;5004726;28;20576;-61
2021/06/17 11:25:17;;;;;;;8.18;4.25;;;31.80;38.00;;;;;;4984455;28;20175;-60
2021/06/17 11:27:58;;;;;;;4.63;4.15;;;31.40;38.20;;;;;;5003850;28;20215;-59
2021/06/17 11:30:46;;;;;;;13.10;4.55;;;30.90;37.50;;;;;;4999564;28;20844;-61
2021/06/17 11:33:14;;;;;;;6.90;4.47;;;30.90;38.30;;;;;;5003804;28;20211;-60
2021/06/17 11:35:41;;;;;;;4.32;3.75;;;30.90;38.20;;;;;;5002762;28;20708;-60
2021/06/17 11:38:08;;;;;;;11.20;4.40;;;30.80;37.30;;;;;;5000072;28;20184;-60
2021/06/17 11:40:34;;;;;;;7.30;4.70;;;30.70;38.00;;;;;;5001344;28;20198;-62
2021/06/17 11:42:59;;;;;;;9.75;4.53;;;30.80;39.10;;;;;;5011986;28;20672;-60
2021/06/17 11:45:32;;;;;;;5.05;4.25;;;30.80;40.30;;;;;;5012506;28;20179;-61
2021/06/17 11:48:00;;;;;;;4.40;4.00;;;31.00;39.30;;;;;;5004074;28;20279;-61
2021/06/17 11:50:26;;;;;;;5.82;4.50;;;31.20;39.70;;;;;;5001422;28;20290;-60
2021/06/17 11:52:55;;;;;;;4.28;3.97;;;31.50;39.80;;;;;;5009677;28;20208;-62
2021/06/17 11:55:21;;;;;;;10.93;8.18;;;31.80;39.80;;;;;;5005201;28;20172;-61
2021/06/17 11:57:47;;;;;;;5.65;4.43;;;32.00;40.20;;;;;;5006131;28;20186;-61
2021/06/17 12:00:29;;;;;;;5.53;4.68;;;32.00;37.20;;;;;;5007235;28;20309;-61
2021/06/17 12:02:54;;;;;;;4.88;4.38;;;32.10;38.90;;;;;;5010856;28;20194;-63
2021/06/17 12:05:22;;;;;;;8.75;4.18;;;32.30;39.70;;;;;;5008235;28;20178;-65
2021/06/17 12:07:48;;;;;;;6.45;4.60;;;32.60;39.70;;;;;;5011377;28;20197;-61
2021/06/17 12:10:18;;;;;;;5.78;4.50;;;32.80;39.60;;;;;;5027095;28;20195;-63
2021/06/17 12:12:51;;;;;;;12.48;5.10;;;33.00;39.20;;;;;;5026032;28;20218;-64
2021/06/17 12:15:17;;;;;;;9.95;5.78;;;33.20;38.80;;;;;;5004239;28;20177;-62
2021/06/17 12:17:49;;;;;;;9.65;4.75;;;33.40;38.30;;;;;;5007241;28;20531;-61
2021/06/17 12:20:27;;;;;;;5.80;4.32;;;33.60;38.30;;;;;;5010809;28;20211;-62
2021/06/17 12:22:56;;;;;;;4.85;4.13;;;33.70;36.40;;;;;;5011164;28;20258;-65
2021/06/17 12:25:26;;;;;;;8.52;4.47;;;33.70;35.20;;;;;;5009804;28;20172;-61
2021/06/17 12:27:53;;;;;;;4.82;4.07;;;33.80;36.40;;;;;;4992134;28;20176;-64
2021/06/17 12:30:27;;;;;;;5.82;4.18;;;33.90;37.00;;;;;;5010019;28;20185;-60
2021/06/17 12:32:54;;;;;;;4.97;3.90;;;34.00;35.50;;;;;;5011587;28;20799;-63
2021/06/17 12:35:22;;;;;;;9.65;4.50;;;34.00;34.60;;;;;;5008730;28;20661;-63
2021/06/17 12:37:54;;;;;;;4.90;3.88;;;34.00;35.80;;;;;;4994376;28;20215;-64
2021/06/17 12:40:45;;;;;;;7.38;3.80;;;34.00;33.60;;;;;;5009505;28;20271;-63
2021/06/17 12:43:19;;;;;;;5.72;3.95;;;33.90;33.80;;;;;;5005456;28;20197;-62
2021/06/17 12:46:06;;;;;;;7.03;4.45;;;33.90;34.70;;;;;;4990695;28;20182;-62
2021/06/17 12:54:09;;;;;;;6.85;3.80;;;34.30;34.50;;;;;;4995002;28;20232;-63
2021/06/17 12:56:47;;;;;;;6.57;3.90;;;34.50;34.50;;;;;;4990451;28;20547;-63
2021/06/17 12:59:13;;;;;;;6.60;4.20;;;34.70;34.20;;;;;;4997241;28;20189;-63
2021/06/17 13:01:47;;;;;;;8.15;3.95;;;34.70;34.10;;;;;;5001590;28;20259;-60
2021/06/17 13:04:17;;;;;;;6.50;3.65;;;34.90;33.20;;;;;;5007911;28;20168;-61
2021/06/17 13:06:43;;;;;;;4.65;3.70;;;34.80;32.90;;;;;;5002468;28;20656;-63
2021/06/17 13:09:27;;;;;;;8.05;3.53;;;34.90;32.40;;;;;;5019818;28;20199;-62
2021/06/17 13:12:05;;;;;;;5.38;3.70;;;34.90;32.50;;;;;;5018534;28;20678;-62